Otis, LA (71466)

2:53 AM CDT on June 25, 2017 (GMT -0500)
Downs Lane | | Change Station
Active Advisory: Flood Warning

Elev 69 ft 31.28 °N, 92.57 °W | Updated 20 seconds ago

Fog
Fog
71.9 °F
Feels Like 71.9 °F
N
0.0
Wind Variable Wind from NNW

Today
High -- | Low -- °F
--% Chance of Precip.
Yesterday
High -- | Low -- °F
Precip. -- in
Pressure 30.11 in
Visibility 0.2 miles
Clouds
Dew Point 70 °F
Humidity 93%
Rainfall 0.00 in
Snow Depth Not available.
6:08 AM 8:18 PM
New Moon, 2% visible
SPECI KAEX 250711Z 00000KT 1/4SM FG VV001 22/22 A3011 RMK AO2 T02170217
Pressure 30.11 in
Visibility 0.2 miles
Clouds
Dew Point 70 °F
Humidity 93%
Rainfall 0.00 in
Snow Depth Not available.
6:08 AM 8:18 PM
New Moon, 2% visible
SPECI KAEX 250711Z 00000KT 1/4SM FG VV001 22/22 A3011 RMK AO2 T02170217

Get Your Daily Forecast Email!

Thanks for signing up!

Be on the lookout for a verification email in your inbox.

You'll start receiving severe weather alerts in your inbox..

×

10-Day Weather Forecast

Almanac

Astronomy

Jun. 25, 2017 Rise Set
Actual Time
Civil Twilight
Nautical Twilight
Astronomical Twilight
Moon
Length of Visible Light
Length of Day
Tomorrow will be .
, % of the Moon is Illuminated

Today's Extremes

State Highs State Lows

Community

WunderPhotos

Category 6

Welcome to Category 6. This is the collective home for Weather Underground's featured writeups by Dr. Jeff Masters (right), Bob Henson (left), Chris Burt, and other regular contributors.

Nearby

Air Quality

  Air Quality AQ Index Pollutant
Not available.

Snow Depth

Station Depth Elevation

Earthquake Activity

City Distance Mag. Time & Date
Minimum magnitude displayed is 2.5.

Coastal Water Temperatures

Place Temperature

Stations

Nearby Weather Stations

Station Location Temp. Windchill Dew Point Humidity Wind Precip. Elev Updated Type
                   

Watches & Warnings

Flood Warning
Issued: 8:29 PM CDT Jun. 24, 2017 – National Weather Service

The Flood Warning continues for
the Calcasieu River near Glenmora.
* From Sunday afternoon to Tuesday afternoon... or until the warning
is cancelled.
* At 7:45 PM Saturday the stage was 10.5 feet.
* Minor flooding is forecast.
* Flood stage is 12.0 feet.
* Forecast... rise above flood stage by tomorrow afternoon and
continue to rise to near 12.5 feet by Monday morning.The river will
fall below flood stage by Tuesday morning.
* Impact... at stages near 12.0 feet... when the river is rising and
the gauge reading is forecast to reach 12 feet or higher. Roads
upstream from Glenmora, including strothers crossing Road near the
community of Calcasieu and Price Crossing Road near Hineston have
water on them and are subject to being closed. Also, flooding of
forested areas near the river will occur.
* Impact... at stages near 12.0 feet... when the river is falling and
the gauge reading is forecast to be near 12 feet, flooding of
forested areas near the river will occur.


Lat... Lon 3115 9275 3105 9265 3090 9262 3090 9269 3113 9279